Time;durP1;ratioP1;P1;durP2;ratioP2;P2;SDS_P1;SDS_P2;PMS_P1;PMS_P2;Temp;Humidity;BMP_temperature;BMP_pressure;BME280_temperature;BME280_humidity;BME280_pressure;Samples;Min_cycle;Max_cycle;Signal;HPM_P1;HPM_P2
2021/07/11 00:03:29;;;;;;;11.18;7.50;;;13.70;99.90;;;;;;20903343;28;20099;-47
2021/07/11 00:13:31;;;;;;;9.80;8.07;;;13.80;99.90;;;;;;20910907;28;20032;-46
2021/07/11 00:23:32;;;;;;;9.85;6.95;;;13.90;99.90;;;;;;20926331;28;20029;-46
2021/07/11 00:33:41;;;;;;;8.63;6.78;;;14.10;99.90;;;;;;20999841;28;20086;-46
2021/07/11 00:43:42;;;;;;;8.70;6.90;;;14.30;99.90;;;;;;20999249;28;20028;-47
2021/07/11 00:53:50;;;;;;;9.10;7.60;;;14.40;99.90;;;;;;20997101;28;20406;-45
2021/07/11 01:03:57;;;;;;;14.13;8.73;;;14.50;99.90;;;;;;20996693;28;20037;-48
2021/07/11 01:14:01;;;;;;;10.30;8.00;;;15.00;99.90;;;;;;20935889;28;20086;-49
2021/07/11 01:24:16;;;;;;;6.00;4.00;;;15.00;99.90;;;;;;20912502;28;20037;-46
2021/07/11 01:34:19;;;;;;;3.67;2.63;;;14.40;99.90;;;;;;20830065;28;20467;-50
2021/07/11 01:44:22;;;;;;;2.55;1.30;;;13.70;99.90;;;;;;20829373;28;20060;-47
2021/07/11 01:54:28;;;;;;;4.60;3.50;;;13.20;99.90;;;;;;20824689;28;20057;-49
2021/07/11 02:04:30;;;;;;;8.77;4.78;;;13.10;99.90;;;;;;20826083;28;20488;-52
2021/07/11 02:14:37;;;;;;;7.20;6.07;;;12.90;99.90;;;;;;20891704;28;20033;-50
2021/07/11 02:24:42;;;;;;;5.50;4.65;;;12.80;99.90;;;;;;20908266;28;20029;-48
2021/07/11 02:34:48;;;;;;;6.25;5.05;;;12.70;99.90;;;;;;20906127;28;20032;-48
2021/07/11 02:44:52;;;;;;;5.38;4.40;;;;;;;;;;20906785;28;20025;-46
2021/07/11 02:55:02;;;;;;;4.47;3.60;;;12.10;99.90;;;;;;20904540;28;20580;-47
2021/07/11 03:05:05;;;;;;;3.15;2.60;;;11.90;99.90;;;;;;20905214;28;20028;-48
2021/07/11 03:15:09;;;;;;;2.95;1.30;;;11.70;99.90;;;;;;20903164;28;20422;-49
2021/07/11 03:25:15;;;;;;;1.10;1.00;;;11.60;99.90;;;;;;20904015;28;20089;-49
2021/07/11 03:35:21;;;;;;;1.20;1.00;;;11.70;99.90;;;;;;20903534;28;20086;-46
2021/07/11 03:45:26;;;;;;;0.52;0.40;;;11.70;99.90;;;;;;20905806;28;20387;-52
2021/07/11 03:55:32;;;;;;;1.05;0.77;;;11.80;99.90;;;;;;20919238;28;20440;-49
2021/07/11 04:05:37;;;;;;;1.95;1.30;;;11.90;99.90;;;;;;20917889;28;20036;-50
2021/07/11 04:15:41;;;;;;;1.35;0.95;;;12.00;99.90;;;;;;20918114;28;20039;-53
2021/07/11 04:25:44;;;;;;;1.75;1.30;;;12.00;99.90;;;;;;20917230;28;20044;-47
2021/07/11 04:35:46;;;;;;;1.10;1.00;;;12.20;99.90;;;;;;20916379;28;20029;-47
2021/07/11 04:45:48;;;;;;;0.60;0.60;;;12.70;99.90;;;;;;20915958;28;20102;-47
2021/07/11 04:55:50;;;;;;;2.15;0.90;;;13.90;99.90;;;;;;20913584;28;20041;-47
2021/07/11 05:05:51;;;;;;;1.33;0.90;;;14.20;99.90;;;;;;20913864;28;20159;-50
2021/07/11 05:15:53;;;;;;;0.88;0.60;;;14.70;99.90;;;;;;20913048;28;20060;-46
2021/07/11 05:25:55;;;;;;;1.10;0.70;;;15.40;99.90;;;;;;20912205;28;20025;-48
2021/07/11 05:35:56;;;;;;;2.13;0.90;;;16.10;99.90;;;;;;20911811;28;20025;-47
2021/07/11 05:45:58;;;;;;;0.88;0.70;;;16.60;99.90;;;;;;20911438;28;20088;-46
2021/07/11 05:56:00;;;;;;;3.38;1.10;;;17.00;99.90;;;;;;20910013;28;20622;-47
2021/07/11 06:06:02;;;;;;;2.33;1.40;;;16.90;99.90;;;;;;20909276;28;20103;-45
2021/07/11 06:16:04;;;;;;;1.42;1.05;;;16.80;99.90;;;;;;20907691;28;20427;-49
2021/07/11 06:26:06;;;;;;;1.00;0.90;;;17.20;99.90;;;;;;20907558;28;20040;-47
2021/07/11 06:36:08;;;;;;;1.10;0.80;;;17.30;99.90;;;;;;20906844;28;20033;-46
2021/07/11 06:46:10;;;;;;;0.50;0.50;;;16.80;99.90;;;;;;20906107;28;20542;-49
2021/07/11 06:56:12;;;;;;;0.65;0.50;;;16.90;99.90;;;;;;20904515;28;20049;-47
2021/07/11 07:06:17;;;;;;;0.73;0.43;;;17.30;99.90;;;;;;20904788;28;20087;-49
2021/07/11 07:16:18;;;;;;;1.73;0.70;;;18.80;99.90;;;;;;20904276;28;20064;-49
2021/07/11 07:26:20;;;;;;;1.00;0.80;;;19.30;99.90;;;;;;20903174;28;20037;-48
2021/07/11 07:36:21;;;;;;;0.73;0.70;;;23.00;98.80;;;;;;20902927;28;20556;-47
2021/07/11 07:46:24;;;;;;;0.80;0.80;;;24.30;99.90;;;;;;20903216;28;20033;-48
2021/07/11 07:56:25;;;;;;;1.30;1.20;;;25.50;95.50;;;;;;20903458;28;20053;-49
2021/07/11 08:06:27;;;;;;;1.67;1.58;;;27.00;94.00;;;;;;20902325;28;20037;-48
2021/07/11 08:16:31;;;;;;;2.25;1.42;;;27.30;90.20;;;;;;20901343;28;20091;-49
2021/07/11 08:26:34;;;;;;;1.35;1.25;;;25.20;91.20;;;;;;20901945;28;20095;-48
2021/07/11 08:36:35;;;;;;;1.10;1.00;;;25.20;93.40;;;;;;20912962;28;20072;-52
2021/07/11 08:46:39;;;;;;;3.20;1.63;;;25.30;95.30;;;;;;20915863;28;20098;-47
2021/07/11 08:56:41;;;;;;;3.67;2.17;;;25.00;90.10;;;;;;20914872;28;20095;-49
2021/07/11 09:06:55;;;;;;;2.25;1.13;;;21.30;93.40;;;;;;20914344;28;20032;-47
2021/07/11 09:16:58;;;;;;;1.27;1.10;;;20.10;97.20;;;;;;20914164;28;20488;-45
2021/07/11 09:27:12;;;;;;;1.15;0.85;;;21.80;96.00;;;;;;20911560;28;20029;-48
2021/07/11 09:37:16;;;;;;;1.30;0.68;;;23.90;96.30;;;;;;20911119;28;20429;-48
2021/07/11 09:47:24;;;;;;;1.10;0.80;;;25.70;91.00;;;;;;20909741;28;20079;-46
2021/07/11 09:57:43;;;;;;;1.00;0.60;;;25.90;84.50;;;;;;20909982;28;20559;-48
2021/07/11 10:07:46;;;;;;;0.90;0.63;;;26.30;83.00;;;;;;20908894;28;20024;-50
2021/07/11 10:17:57;;;;;;;0.55;0.50;;;25.00;83.60;;;;;;20907962;28;20029;-50
2021/07/11 10:28:10;;;;;;;1.60;0.65;;;25.10;89.60;;;;;;20905975;28;20037;-46
2021/07/11 10:38:13;;;;;;;0.40;0.30;;;26.20;87.00;;;;;;20906895;28;20033;-52
2021/07/11 10:48:28;;;;;;;0.32;0.32;;;26.30;81.70;;;;;;20905931;28;20036;-46
2021/07/11 10:58:46;;;;;;;0.60;0.50;;;27.30;82.60;;;;;;20904464;28;20578;-52
2021/07/11 11:08:48;;;;;;;0.40;0.40;;;27.70;84.90;;;;;;20905212;28;20040;-46
2021/07/11 11:18:54;;;;;;;0.40;0.40;;;27.60;78.30;;;;;;20904648;28;20386;-49
2021/07/11 11:28:58;;;;;;;0.40;0.40;;;26.90;81.10;;;;;;20904177;28;20382;-47
2021/07/11 11:39:15;;;;;;;0.70;0.50;;;26.20;78.80;;;;;;20903470;28;20095;-46
2021/07/11 11:49:19;;;;;;;0.90;0.40;;;27.10;80.20;;;;;;20904169;28;20436;-47
2021/07/11 11:59:21;;;;;;;0.95;0.50;;;27.70;83.30;;;;;;20903040;28;20044;-48
2021/07/11 12:09:30;;;;;;;0.82;0.57;;;27.80;80.50;;;;;;20910707;28;20367;-46
2021/07/11 12:19:49;;;;;;;0.40;0.40;;;26.00;83.30;;;;;;20918077;28;20376;-49
2021/07/11 12:29:51;;;;;;;0.70;0.70;;;25.50;86.00;;;;;;20918541;28;20300;-47
2021/07/11 12:39:53;;;;;;;1.35;1.10;;;24.80;89.30;;;;;;20915848;28;20041;-47
2021/07/11 12:50:05;;;;;;;1.20;1.05;;;25.10;90.40;;;;;;20914669;28;20052;-52
2021/07/11 13:00:11;;;;;;;2.65;1.38;;;24.80;90.40;;;;;;20913842;28;20091;-47
2021/07/11 13:10:15;;;;;;;1.08;0.98;;;24.70;90.40;;;;;;20911757;28;20045;-48
2021/07/11 13:20:20;;;;;;;3.70;1.25;;;24.60;90.50;;;;;;20911506;28;20033;-47
2021/07/11 13:30:26;;;;;;;1.02;0.93;;;23.60;92.70;;;;;;20911326;28;20068;-47
2021/07/11 13:40:27;;;;;;;4.65;1.42;;;23.70;92.80;;;;;;20910781;28;20567;-48
2021/07/11 13:50:38;;;;;;;2.83;1.52;;;24.10;89.20;;;;;;20910138;28;20437;-47
2021/07/11 14:00:41;;;;;;;4.32;1.42;;;25.00;87.90;;;;;;20910079;28;20041;-47
2021/07/11 14:10:43;;;;;;;2.05;1.42;;;25.90;88.90;;;;;;20907468;28;20053;-53
2021/07/11 14:20:45;;;;;;;1.00;0.90;;;26.20;82.70;;;;;;20907686;28;20040;-48
2021/07/11 14:30:48;;;;;;;1.00;0.90;;;24.60;89.40;;;;;;20907131;28;20071;-47
2021/07/11 14:40:50;;;;;;;0.90;0.70;;;24.10;86.00;;;;;;20906116;28;20029;-46
2021/07/11 14:50:52;;;;;;;2.92;1.23;;;23.20;90.60;;;;;;20903953;28;20548;-47
2021/07/11 15:00:54;;;;;;;1.45;1.20;;;22.80;90.50;;;;;;20905545;28;20081;-48
2021/07/11 15:10:56;;;;;;;1.45;0.93;;;22.10;92.10;;;;;;20904680;28;20029;-52
2021/07/11 15:20:58;;;;;;;0.90;0.80;;;23.80;90.10;;;;;;20904308;28;20021;-53
2021/07/11 15:31:00;;;;;;;1.85;1.08;;;25.40;86.20;;;;;;20904086;28;20080;-50
2021/07/11 15:41:01;;;;;;;1.15;1.05;;;28.30;79.90;;;;;;20906287;28;20044;-49
2021/07/11 15:51:04;;;;;;;1.83;1.20;;;29.90;74.30;;;;;;20918793;28;20049;-53
2021/07/11 16:01:05;;;;;;;1.30;1.20;;;30.30;72.60;;;;;;20919162;28;20040;-49
2021/07/11 16:11:07;;;;;;;1.20;1.10;;;28.90;71.30;;;;;;20918257;28;20078;-49
2021/07/11 16:21:09;;;;;;;2.85;1.30;;;25.20;80.50;;;;;;20917370;28;20449;-47
2021/07/11 16:31:12;;;;;;;1.88;1.50;;;25.10;81.00;;;;;;20916611;28;20036;-47
2021/07/11 16:41:14;;;;;;;1.48;1.10;;;23.60;86.40;;;;;;20916274;28;20032;-48
2021/07/11 16:51:15;;;;;;;2.03;0.90;;;22.70;88.10;;;;;;20913946;28;20087;-48
2021/07/11 17:01:17;;;;;;;1.27;0.80;;;21.20;91.00;;;;;;20914671;28;20033;-46
2021/07/11 17:11:19;;;;;;;1.27;0.95;;;19.50;93.20;;;;;;20914925;28;20076;-48
2021/07/11 17:21:21;;;;;;;2.45;0.90;;;18.40;95.90;;;;;;20913186;28;20433;-47
2021/07/11 17:31:23;;;;;;;2.63;1.27;;;17.80;97.30;;;;;;20912195;28;20453;-52
2021/07/11 17:41:26;;;;;;;1.63;1.10;;;17.20;98.90;;;;;;20893544;28;20539;-48
2021/07/11 17:51:27;;;;;;;1.65;1.00;;;16.60;99.20;;;;;;20911362;28;20183;-47
2021/07/11 18:01:29;;;;;;;2.97;1.13;;;16.30;99.90;;;;;;20908978;28;20090;-48
2021/07/11 18:11:31;;;;;;;2.10;1.05;;;16.10;99.90;;;;;;20909645;28;20033;-45
2021/07/11 18:21:33;;;;;;;1.30;1.10;;;15.70;99.90;;;;;;20908496;28;20544;-46
2021/07/11 18:31:35;;;;;;;1.30;0.95;;;15.60;99.90;;;;;;20908771;28;20063;-46
2021/07/11 18:41:36;;;;;;;2.53;1.00;;;15.40;99.90;;;;;;20906888;28;20094;-48
2021/07/11 18:51:39;;;;;;;1.35;0.90;;;15.40;99.90;;;;;;20904937;28;20052;-48
2021/07/11 19:01:41;;;;;;;1.10;0.93;;;15.20;99.90;;;;;;20905461;28;20037;-46
2021/07/11 19:11:43;;;;;;;1.85;1.40;;;15.10;99.90;;;;;;20906105;28;20044;-47
2021/07/11 19:21:45;;;;;;;1.85;1.40;;;14.80;99.90;;;;;;20903588;28;20032;-45
2021/07/11 19:31:47;;;;;;;1.48;1.33;;;14.80;99.90;;;;;;20903751;28;20106;-45
2021/07/11 19:41:48;;;;;;;1.95;1.20;;;14.60;99.90;;;;;;20903940;28;20398;-51
2021/07/11 19:51:50;;;;;;;4.20;1.60;;;14.30;99.90;;;;;;20903000;28;20045;-48
2021/07/11 20:01:52;;;;;;;2.00;1.63;;;14.00;99.90;;;;;;20903083;28;20557;-46
2021/07/11 20:11:54;;;;;;;2.00;1.30;;;14.10;99.90;;;;;;20902600;28;20478;-47
2021/07/11 20:21:56;;;;;;;5.47;2.20;;;14.00;99.90;;;;;;20902744;28;20439;-46
2021/07/11 20:31:58;;;;;;;4.45;2.00;;;13.80;99.90;;;;;;20913308;28;20471;-47
2021/07/11 20:42:02;;;;;;;8.65;4.45;;;14.10;99.90;;;;;;20916332;28;20025;-46
2021/07/11 20:52:04;;;;;;;9.43;4.60;;;13.70;99.90;;;;;;20915514;28;20044;-49
2021/07/11 21:02:06;;;;;;;8.35;4.32;;;13.60;99.90;;;;;;20914805;28;20033;-45
2021/07/11 21:12:07;;;;;;;11.55;4.68;;;13.60;99.90;;;;;;20914066;28;20059;-45
2021/07/11 21:22:09;;;;;;;6.57;3.85;;;13.40;99.90;;;;;;20914974;28;20075;-46
2021/07/11 21:32:11;;;;;;;6.78;3.65;;;13.60;99.90;;;;;;20912514;28;20433;-45
2021/07/11 21:42:12;;;;;;;4.57;2.95;;;13.50;99.90;;;;;;20911271;28;20040;-45
2021/07/11 21:52:14;;;;;;;5.35;2.92;;;13.70;99.90;;;;;;20911889;28;20044;-46
2021/07/11 22:02:15;;;;;;;4.10;2.10;;;13.40;99.90;;;;;;20910224;28;20037;-47
2021/07/11 22:12:17;;;;;;;4.45;1.85;;;13.50;99.90;;;;;;20909396;28;20087;-50
2021/07/11 22:22:20;;;;;;;2.28;1.50;;;13.50;99.90;;;;;;20908644;28;20041;-45
2021/07/11 22:32:22;;;;;;;2.97;1.30;;;13.40;99.90;;;;;;20908004;28;20033;-48
2021/07/11 22:42:24;;;;;;;1.27;0.80;;;13.80;99.90;;;;;;20907125;28;20045;-45
2021/07/11 22:52:26;;;;;;;2.00;0.90;;;13.40;99.90;;;;;;20906175;28;20091;-45
2021/07/11 23:02:27;;;;;;;0.95;0.60;;;13.20;99.90;;;;;;20905690;28;20045;-49
2021/07/11 23:12:29;;;;;;;0.93;0.57;;;13.00;99.90;;;;;;20905176;28;20124;-44
2021/07/11 23:22:31;;;;;;;0.68;0.50;;;13.00;99.90;;;;;;20905589;28;20045;-47
2021/07/11 23:32:33;;;;;;;0.60;0.50;;;13.10;99.90;;;;;;20904173;28;20386;-46
2021/07/11 23:42:35;;;;;;;1.98;0.60;;;12.80;99.90;;;;;;20904064;28;20041;-49
2021/07/11 23:52:36;;;;;;;1.20;0.80;;;13.00;99.30;;;;;;20903321;28;20549;-47
